Terminal Aerodrome Forecast
Issued by NWS

Home | Current Version | Previous Version | Text Only | Print | Product List | Glossary On
Versions: 1 2 3 4 5 6 7 8 9 10 11 12 13 14 15 16 17 18 19 20 21 22 23 24 25 26 27 28 29
000
FTUS42 KCAE 301738
TAFOGB
TAF
KOGB 301738Z 3018/0118 16009KT P6SM SCT040 BKN250
     FM010400 13008KT P6SM BKN015
     FM010600 13004KT 5SM BR OVC007
     FM011500 19009KT P6SM SCT040=

USA.gov is the U.S. government's official web portal to all federal, state and local government web resources and services.